createdAt,value
2022-11-26T00:00:21.193Z,83.85
2022-11-26T00:02:54.315Z,84.59
2022-11-26T00:05:31.114Z,84.12
2022-11-26T00:08:05.079Z,84.32
2022-11-26T00:10:36.848Z,83.81
2022-11-26T00:13:18.034Z,83.72
2022-11-26T00:15:50.177Z,83.15
2022-11-26T00:18:26.849Z,83.61
2022-11-26T00:21:00.948Z,83.82
2022-11-26T00:23:32.704Z,83.38
2022-11-26T00:26:10.732Z,83.52
2022-11-26T00:28:57.875Z,83.66
2022-11-26T00:31:29.685Z,83.97
2022-11-26T00:34:01.404Z,84.38
2022-11-26T00:36:33.435Z,84.19
2022-11-26T00:39:10.028Z,83.62
2022-11-26T00:41:41.656Z,83.67
2022-11-26T00:44:25.019Z,83.24
2022-11-26T00:46:59.941Z,83.89
2022-11-26T00:49:34.700Z,83.66
2022-11-26T00:52:23.782Z,83.95
2022-11-26T00:54:57.651Z,83.80
2022-11-26T00:57:29.282Z,83.72
2022-11-26T01:00:00.958Z,84.14
2022-11-26T01:02:32.605Z,83.98
2022-11-26T01:05:04.930Z,83.79
2022-11-26T01:07:36.967Z,83.44
2022-11-26T01:10:21.332Z,83.89
2022-11-26T01:12:53.442Z,84.20
2022-11-26T01:15:26.910Z,83.70
2022-11-26T01:17:58.577Z,83.55
2022-11-26T01:20:31.199Z,83.74
2022-11-26T01:23:02.849Z,83.64
2022-11-26T01:25:34.611Z,83.72
2022-11-26T01:28:10.947Z,83.20
2022-11-26T01:30:43.212Z,83.41
2022-11-26T01:33:15.984Z,83.02
2022-11-26T01:35:47.645Z,83.64
2022-11-26T01:38:19.390Z,83.11
2022-11-26T01:41:05.437Z,83.25
2022-11-26T01:43:41.948Z,83.00
2022-11-26T01:46:16.354Z,83.14
2022-11-26T01:48:50.188Z,82.71
2022-11-26T01:51:27.177Z,83.47
2022-11-26T01:54:02.180Z,83.24
2022-11-26T01:56:51.537Z,82.97
2022-11-26T01:59:30.248Z,82.68
2022-11-26T02:02:02.399Z,82.47
2022-11-26T02:04:41.963Z,82.72
2022-11-26T02:07:13.757Z,82.45
2022-11-26T02:09:46.720Z,82.25
2022-11-26T02:12:18.580Z,82.33
2022-11-26T02:14:50.265Z,82.62
2022-11-26T02:17:45.920Z,82.49
2022-11-26T02:20:48.453Z,82.42
2022-11-26T02:23:32.401Z,82.55
2022-11-26T02:26:21.878Z,82.83
2022-11-26T02:28:59.643Z,82.33
2022-11-26T02:31:41.999Z,82.13
2022-11-26T02:34:25.004Z,82.74
2022-11-26T02:37:12.746Z,82.60
2022-11-26T02:39:44.410Z,82.31
2022-11-26T02:42:29.457Z,81.91
2022-11-26T02:45:06.988Z,81.86
2022-11-26T02:47:42.366Z,81.97
2022-11-26T02:50:20.196Z,82.24
2022-11-26T02:52:54.677Z,82.41
2022-11-26T02:55:32.381Z,82.82
2022-11-26T02:58:05.523Z,82.23
2022-11-26T03:00:41.344Z,82.10
2022-11-26T03:03:26.546Z,81.69
2022-11-26T03:06:01.119Z,81.56
2022-11-26T03:08:33.274Z,82.28
2022-11-26T03:11:05.977Z,81.96
2022-11-26T03:13:37.639Z,81.58
2022-11-26T03:16:09.403Z,81.07
2022-11-26T03:18:41.098Z,81.58
2022-11-26T03:21:12.801Z,81.63
2022-11-26T03:23:44.523Z,81.49
2022-11-26T03:26:16.222Z,81.94
2022-11-26T03:28:47.872Z,81.82
2022-11-26T03:31:19.597Z,81.85
2022-11-26T03:33:51.249Z,81.58
2022-11-26T03:36:22.849Z,81.98
2022-11-26T03:38:54.596Z,82.16
2022-11-26T03:41:26.271Z,82.01
2022-11-26T03:43:57.860Z,81.92
2022-11-26T03:46:29.878Z,81.57
2022-11-26T03:49:01.532Z,81.76
2022-11-26T03:51:33.283Z,82.06
2022-11-26T03:54:06.057Z,82.18
2022-11-26T03:56:37.740Z,82.14
2022-11-26T03:59:09.375Z,82.06
2022-11-26T04:01:42.258Z,82.26
2022-11-26T04:04:13.901Z,82.61
2022-11-26T04:06:45.737Z,81.94
2022-11-26T04:09:17.420Z,81.84
2022-11-26T04:11:52.050Z,81.24
2022-11-26T04:14:24.147Z,81.64
2022-11-26T04:16:55.865Z,81.71
2022-11-26T04:19:27.519Z,81.52
2022-11-26T04:21:59.304Z,81.67
2022-11-26T04:24:30.911Z,81.56
2022-11-26T04:27:02.612Z,82.04
2022-11-26T04:29:34.312Z,82.08
2022-11-26T04:32:06.416Z,81.76
2022-11-26T04:34:38.666Z,81.94
2022-11-26T04:37:10.550Z,82.03
2022-11-26T04:39:42.553Z,81.79
2022-11-26T04:42:14.237Z,81.53
2022-11-26T04:44:45.825Z,81.53
2022-11-26T04:47:17.577Z,81.40
2022-11-26T04:49:49.193Z,81.55
2022-11-26T04:52:20.844Z,81.31
2022-11-26T04:54:52.500Z,81.61
2022-11-26T04:57:24.127Z,81.46
2022-11-26T04:59:58.200Z,81.63
2022-11-26T05:02:29.887Z,81.36
2022-11-26T05:05:01.796Z,81.94
2022-11-26T05:07:34.129Z,81.97
2022-11-26T05:10:08.889Z,81.94
2022-11-26T05:12:40.745Z,81.84
2022-11-26T05:15:12.576Z,81.75
2022-11-26T05:17:44.356Z,81.42
2022-11-26T05:20:16.138Z,81.95
2022-11-26T05:22:47.773Z,81.53
2022-11-26T05:25:19.436Z,81.81
2022-11-26T05:27:51.022Z,81.67
2022-11-26T05:30:22.672Z,81.51
2022-11-26T05:32:54.374Z,81.54
2022-11-26T05:35:25.996Z,81.40
2022-11-26T05:37:57.745Z,81.60
2022-11-26T05:40:29.423Z,81.41
2022-11-26T05:43:01.069Z,81.18
2022-11-26T05:45:32.795Z,80.87
2022-11-26T05:48:04.812Z,80.47
2022-11-26T05:50:36.667Z,80.63
2022-11-26T05:53:08.348Z,80.58
2022-11-26T05:55:40.385Z,80.32
2022-11-26T05:58:12.016Z,80.49
2022-11-26T06:00:43.818Z,79.96
2022-11-26T06:03:19.748Z,79.89
2022-11-26T06:05:51.881Z,80.23
2022-11-26T06:08:23.630Z,80.03
2022-11-26T06:10:55.367Z,80.40
2022-11-26T06:13:27.104Z,80.22
2022-11-26T06:15:59.652Z,79.73
2022-11-26T06:18:31.466Z,80.22
2022-11-26T06:21:05.143Z,80.48
2022-11-26T06:23:36.803Z,80.53
2022-11-26T06:26:10.573Z,80.23
2022-11-26T06:28:42.284Z,80.02
2022-11-26T06:31:15.284Z,80.10
2022-11-26T06:33:47.152Z,80.35
2022-11-26T06:36:18.748Z,79.76
2022-11-26T06:38:50.784Z,80.10
2022-11-26T06:41:22.494Z,80.35
2022-11-26T06:43:54.188Z,79.98
2022-11-26T06:46:25.828Z,79.74
2022-11-26T06:49:05.488Z,80.13
2022-11-26T06:51:37.114Z,80.64
2022-11-26T06:54:08.781Z,80.43
2022-11-26T06:56:40.328Z,80.30
2022-11-26T06:59:12.006Z,80.20
2022-11-26T07:01:43.662Z,80.76
2022-11-26T07:04:15.524Z,80.54
2022-11-26T07:06:47.226Z,80.59
2022-11-26T07:09:18.854Z,80.68
2022-11-26T07:11:50.573Z,80.23
2022-11-26T07:14:22.712Z,80.38
2022-11-26T07:16:54.320Z,81.13
2022-11-26T07:19:26.247Z,80.53
2022-11-26T07:21:57.864Z,81.09
2022-11-26T07:24:29.520Z,80.44
2022-11-26T07:27:01.108Z,79.74
2022-11-26T07:29:32.776Z,80.32
2022-11-26T07:32:04.544Z,79.50
2022-11-26T07:34:36.522Z,79.52
2022-11-26T07:37:08.349Z,79.48
2022-11-26T07:39:40.058Z,78.34
2022-11-26T07:42:11.680Z,77.90
2022-11-26T07:44:43.308Z,77.90
2022-11-26T07:47:14.866Z,77.82
2022-11-26T07:49:49.204Z,76.20
2022-11-26T07:52:21.846Z,75.89
2022-11-26T07:54:53.499Z,75.02
2022-11-26T07:57:25.325Z,73.97
2022-11-26T07:59:57.115Z,73.13
2022-11-26T08:02:28.734Z,71.12
2022-11-26T08:05:00.360Z,71.16
2022-11-26T08:07:32.086Z,71.11
2022-11-26T08:10:05.140Z,70.37
2022-11-26T08:12:37.051Z,70.14
2022-11-26T08:15:09.366Z,69.94
2022-11-26T08:17:40.987Z,70.53
2022-11-26T08:20:12.766Z,70.94
2022-11-26T08:22:44.454Z,70.78
2022-11-26T08:25:16.494Z,70.42
2022-11-26T08:27:48.283Z,69.81
2022-11-26T08:30:20.006Z,69.92
2022-11-26T08:32:51.632Z,70.22
2022-11-26T08:35:34.403Z,69.87
2022-11-26T08:38:15.047Z,70.16
2022-11-26T08:40:49.884Z,70.35
2022-11-26T08:43:27.671Z,70.96
2022-11-26T08:46:11.465Z,70.65
2022-11-26T08:48:43.312Z,71.24
2022-11-26T08:51:17.718Z,71.40
2022-11-26T08:53:49.378Z,71.44
2022-11-26T08:56:25.809Z,71.60
2022-11-26T08:58:57.948Z,71.35
2022-11-26T09:01:32.630Z,72.06
2022-11-26T09:04:04.828Z,71.63
2022-11-26T09:06:37.135Z,71.99
2022-11-26T09:09:17.494Z,72.30
2022-11-26T09:11:57.667Z,72.25
2022-11-26T09:14:35.511Z,72.13
2022-11-26T09:17:09.937Z,72.43
2022-11-26T09:19:42.013Z,72.98
2022-11-26T09:22:14.727Z,72.98
2022-11-26T09:24:46.352Z,73.08
2022-11-26T09:27:18.232Z,72.61
2022-11-26T09:29:49.937Z,72.53
2022-11-26T09:32:26.137Z,72.79
2022-11-26T09:35:01.401Z,72.70
2022-11-26T09:37:33.224Z,72.76
2022-11-26T09:40:05.301Z,72.95
2022-11-26T09:43:14.756Z,72.67
2022-11-26T09:45:52.666Z,72.27
2022-11-26T09:48:26.309Z,72.39
2022-11-26T09:51:09.601Z,72.29
2022-11-26T09:53:45.982Z,72.39
2022-11-26T09:56:25.579Z,72.03
2022-11-26T09:59:01.793Z,71.65
2022-11-26T10:01:34.559Z,71.87
2022-11-26T10:04:07.798Z,71.54
2022-11-26T10:07:07.148Z,68.42
2022-11-26T10:10:20.164Z,66.61
2022-11-26T10:13:19.056Z,61.69
2022-11-26T10:16:03.807Z,57.45
2022-11-26T10:19:04.816Z,53.34
2022-11-26T10:21:59.810Z,48.92
2022-11-26T10:24:38.531Z,49.00
2022-11-26T10:27:15.681Z,45.28
2022-11-26T10:29:58.820Z,44.40
2022-11-26T10:32:42.332Z,43.66
2022-11-26T10:35:29.077Z,42.46
2022-11-26T10:38:03.734Z,42.23
2022-11-26T10:40:35.589Z,42.38
2022-11-26T10:43:12.815Z,41.72
2022-11-26T10:45:54.807Z,41.00
2022-11-26T10:48:30.415Z,40.14
2022-11-26T10:51:06.391Z,40.39
2022-11-26T10:53:50.933Z,39.87
2022-11-26T10:56:29.118Z,41.07
2022-11-26T10:59:05.099Z,40.76
2022-11-26T11:01:40.700Z,40.95
2022-11-26T11:04:32.093Z,42.35
2022-11-26T11:07:11.807Z,44.28
2022-11-26T11:09:43.778Z,45.49
2022-11-26T11:12:23.398Z,46.07
2022-11-26T11:14:55.108Z,46.37
2022-11-26T11:17:36.942Z,45.64
2022-11-26T11:20:22.101Z,44.67
2022-11-26T11:23:00.126Z,44.57
2022-11-26T11:25:38.569Z,46.42
2022-11-26T11:28:13.167Z,47.27
2022-11-26T11:30:46.353Z,47.90
2022-11-26T11:33:21.887Z,47.90
2022-11-26T11:36:05.555Z,48.10
2022-11-26T11:38:58.715Z,48.35
2022-11-26T11:41:39.704Z,47.35
2022-11-26T11:44:43.730Z,48.22
2022-11-26T11:47:42.977Z,49.17
2022-11-26T11:50:29.479Z,49.57
2022-11-26T11:53:09.955Z,49.75
2022-11-26T11:56:03.001Z,50.63
2022-11-26T11:58:52.837Z,51.46
2022-11-26T12:01:46.412Z,51.46
2022-11-26T12:04:21.567Z,52.00
2022-11-26T12:07:26.552Z,53.28
2022-11-26T12:10:24.409Z,52.30
2022-11-26T12:13:02.356Z,52.29
2022-11-26T12:15:43.073Z,52.10
2022-11-26T12:18:36.131Z,52.28
2022-11-26T12:21:25.397Z,53.27
2022-11-26T12:24:04.336Z,54.04
2022-11-26T12:26:47.674Z,54.58
2022-11-26T12:29:36.922Z,54.47
2022-11-26T12:32:25.403Z,54.81
2022-11-26T12:35:01.285Z,54.82
2022-11-26T12:37:39.596Z,54.48
2022-11-26T12:40:35.556Z,54.38
2022-11-26T12:43:13.504Z,54.11
2022-11-26T12:46:16.104Z,54.29
2022-11-26T12:49:03.389Z,53.88
2022-11-26T12:52:07.372Z,53.92
2022-11-26T12:55:00.305Z,54.01
2022-11-26T12:57:42.164Z,54.15
2022-11-26T13:00:25.673Z,53.07
2022-11-26T13:02:58.999Z,53.43
2022-11-26T13:05:58.334Z,53.30
2022-11-26T13:08:47.653Z,53.75
2022-11-26T13:11:40.774Z,54.26
2022-11-26T13:14:35.464Z,55.30
2022-11-26T13:17:16.322Z,55.25
2022-11-26T13:19:56.509Z,55.71
2022-11-26T13:22:46.665Z,56.24
2022-11-26T13:25:52.753Z,56.64
2022-11-26T13:29:20.891Z,57.16
2022-11-26T13:32:30.354Z,57.08
2022-11-26T13:35:18.865Z,57.48
2022-11-26T13:38:12.051Z,57.27
2022-11-26T13:41:07.924Z,57.66
2022-11-26T13:44:10.351Z,57.68
2022-11-26T13:46:55.738Z,57.72
2022-11-26T13:49:39.536Z,57.86
2022-11-26T13:52:11.170Z,58.06
2022-11-26T13:54:50.918Z,58.47
2022-11-26T13:57:31.466Z,58.48
2022-11-26T14:00:03.973Z,58.97
2022-11-26T14:02:56.953Z,58.89
2022-11-26T14:05:57.394Z,59.39
2022-11-26T14:08:55.869Z,59.34
2022-11-26T14:11:45.597Z,59.44
2022-11-26T14:14:26.255Z,59.33
2022-11-26T14:17:00.864Z,59.59
2022-11-26T14:19:41.440Z,60.16
2022-11-26T14:22:21.657Z,59.87
2022-11-26T14:25:04.310Z,60.05
2022-11-26T14:27:40.769Z,60.25
2022-11-26T14:30:16.639Z,60.10
2022-11-26T14:33:00.589Z,60.34
2022-11-26T14:35:36.286Z,60.44
2022-11-26T14:38:23.890Z,60.88
2022-11-26T14:40:58.108Z,60.91
2022-11-26T14:43:29.942Z,60.57
2022-11-26T14:46:12.984Z,61.21
2022-11-26T14:48:49.955Z,60.86
2022-11-26T14:51:26.041Z,61.16
2022-11-26T14:53:59.826Z,61.72
2022-11-26T14:56:31.811Z,61.62
2022-11-26T14:59:05.457Z,61.53
2022-11-26T15:01:42.819Z,61.81
2022-11-26T15:04:38.870Z,62.23
2022-11-26T15:07:24.792Z,62.04
2022-11-26T15:10:16.635Z,62.44
2022-11-26T15:12:53.093Z,61.98
2022-11-26T15:15:24.896Z,62.33
2022-11-26T15:18:01.178Z,61.92
2022-11-26T15:20:33.916Z,62.14
2022-11-26T15:23:06.852Z,61.90
2022-11-26T15:25:45.851Z,62.09
2022-11-26T15:28:23.719Z,62.62
2022-11-26T15:31:02.982Z,62.42
2022-11-26T15:33:37.094Z,62.19
2022-11-26T15:36:12.928Z,61.86
2022-11-26T15:39:07.329Z,61.51
2022-11-26T15:41:42.395Z,62.15
2022-11-26T15:44:22.320Z,61.54
2022-11-26T15:46:57.118Z,61.36
2022-11-26T15:49:40.588Z,61.68
2022-11-26T15:52:15.404Z,61.85
2022-11-26T15:55:12.830Z,61.20
2022-11-26T15:57:51.399Z,61.53
2022-11-26T16:00:33.347Z,61.76
2022-11-26T16:03:34.821Z,61.71
2022-11-26T16:06:08.513Z,61.80
2022-11-26T16:08:57.677Z,62.02
2022-11-26T16:11:31.629Z,62.15
2022-11-26T16:14:22.993Z,61.84
2022-11-26T16:16:57.082Z,62.18
2022-11-26T16:19:30.136Z,61.92
2022-11-26T16:22:05.946Z,62.32
2022-11-26T16:24:42.688Z,61.65
2022-11-26T16:27:17.857Z,61.78
2022-11-26T16:29:49.698Z,62.12
2022-11-26T16:32:21.689Z,61.53
2022-11-26T16:34:53.422Z,61.96
2022-11-26T16:37:29.910Z,61.58
2022-11-26T16:40:16.955Z,62.18
2022-11-26T16:42:50.609Z,62.12
2022-11-26T16:45:22.195Z,61.30
2022-11-26T16:47:55.327Z,61.58
2022-11-26T16:50:27.966Z,61.38
2022-11-26T16:52:59.704Z,60.98
2022-11-26T16:55:31.416Z,61.46
2022-11-26T16:58:04.639Z,61.36
2022-11-26T17:00:36.289Z,61.63
2022-11-26T17:03:12.919Z,61.29
2022-11-26T17:05:46.198Z,61.32
2022-11-26T17:08:18.179Z,61.36
2022-11-26T17:10:52.632Z,61.82
2022-11-26T17:13:25.337Z,61.65
2022-11-26T17:15:57.830Z,61.74
2022-11-26T17:18:29.550Z,61.97
2022-11-26T17:21:01.260Z,62.16
2022-11-26T17:23:38.020Z,62.15
2022-11-26T17:26:20.896Z,62.50
2022-11-26T17:28:52.637Z,62.19
2022-11-26T17:31:24.345Z,62.53
2022-11-26T17:33:56.226Z,62.87
2022-11-26T17:36:35.338Z,62.95
2022-11-26T17:39:11.101Z,63.38
2022-11-26T17:41:42.828Z,63.17
2022-11-26T17:44:14.435Z,63.32
2022-11-26T17:47:09.536Z,63.68
2022-11-26T17:49:38.966Z,64.06
2022-11-26T17:52:11.187Z,64.19
2022-11-26T17:54:45.604Z,64.34
2022-11-26T17:57:17.580Z,63.76
2022-11-26T17:59:49.259Z,64.04
2022-11-26T18:02:20.913Z,64.62
2022-11-26T18:04:52.684Z,64.97
2022-11-26T18:07:24.378Z,64.70
2022-11-26T18:09:57.409Z,65.50
2022-11-26T18:12:31.734Z,65.39
2022-11-26T18:15:04.165Z,66.13
2022-11-26T18:17:36.067Z,65.89
2022-11-26T18:20:10.232Z,67.03
2022-11-26T18:22:42.207Z,66.47
2022-11-26T18:25:14.257Z,66.96
2022-11-26T18:27:48.930Z,67.40
2022-11-26T18:30:23.156Z,67.29
2022-11-26T18:32:54.804Z,67.44
2022-11-26T18:35:28.977Z,67.19
2022-11-26T18:38:00.599Z,67.19
2022-11-26T18:40:32.306Z,67.70
2022-11-26T18:43:04.912Z,68.18
2022-11-26T18:45:36.761Z,68.41
2022-11-26T18:48:08.441Z,68.06
2022-11-26T18:50:42.642Z,68.75
2022-11-26T18:53:14.329Z,68.52
2022-11-26T18:55:46.184Z,69.05
2022-11-26T18:58:18.601Z,69.25
2022-11-26T19:00:51.353Z,69.33
2022-11-26T19:03:22.990Z,69.46
2022-11-26T19:05:59.285Z,69.31
2022-11-26T19:08:32.306Z,69.87
2022-11-26T19:11:27.884Z,69.24
2022-11-26T19:14:00.237Z,69.88
2022-11-26T19:16:32.073Z,69.62
2022-11-26T19:19:03.815Z,69.69
2022-11-26T19:21:35.995Z,70.02
2022-11-26T19:24:08.884Z,70.15
2022-11-26T19:26:43.608Z,70.53
2022-11-26T19:29:18.002Z,70.11
2022-11-26T19:31:49.985Z,70.50
2022-11-26T19:34:21.613Z,70.12
2022-11-26T19:36:56.653Z,70.50
2022-11-26T19:39:28.282Z,70.43
2022-11-26T19:42:00.213Z,70.25
2022-11-26T19:44:31.893Z,70.74
2022-11-26T19:47:04.281Z,70.08
2022-11-26T19:49:35.948Z,70.28
2022-11-26T19:52:07.617Z,70.39
2022-11-26T19:54:39.660Z,70.21
2022-11-26T19:57:11.226Z,70.31
2022-11-26T19:59:42.850Z,70.50
2022-11-26T20:02:15.629Z,70.61
2022-11-26T20:04:47.552Z,70.51
2022-11-26T20:07:19.233Z,70.42
2022-11-26T20:09:52.379Z,70.33
2022-11-26T20:12:24.030Z,70.86
2022-11-26T20:14:55.607Z,70.59
2022-11-26T20:17:27.310Z,70.51
2022-11-26T20:19:59.143Z,70.37
2022-11-26T20:22:30.830Z,70.05
2022-11-26T20:25:02.464Z,70.19
2022-11-26T20:27:34.058Z,70.89
2022-11-26T20:30:06.724Z,70.44
2022-11-26T20:32:38.635Z,70.43
2022-11-26T20:35:11.108Z,69.71
2022-11-26T20:37:43.003Z,70.18
2022-11-26T20:40:15.788Z,70.26
2022-11-26T20:42:47.468Z,69.54
2022-11-26T20:45:19.461Z,69.49
2022-11-26T20:47:51.034Z,69.15
2022-11-26T20:50:22.866Z,69.09
2022-11-26T20:52:54.634Z,69.33
2022-11-26T20:55:26.276Z,69.73
2022-11-26T20:57:57.905Z,69.06
2022-11-26T21:00:29.537Z,69.48
2022-11-26T21:03:01.293Z,69.27
2022-11-26T21:05:33.658Z,69.28
2022-11-26T21:08:05.444Z,69.10
2022-11-26T21:10:39.394Z,69.35
2022-11-26T21:13:14.945Z,69.34
2022-11-26T21:15:49.423Z,69.01
2022-11-26T21:18:21.100Z,69.55
2022-11-26T21:20:53.980Z,69.16
2022-11-26T21:23:27.030Z,69.80
2022-11-26T21:25:58.633Z,69.96
2022-11-26T21:28:30.278Z,69.43
2022-11-26T21:31:17.137Z,69.67
2022-11-26T21:33:56.129Z,70.53
2022-11-26T21:36:29.656Z,70.30
2022-11-26T21:39:02.177Z,70.24
2022-11-26T21:41:34.222Z,70.53
2022-11-26T21:44:05.891Z,70.53
2022-11-26T21:46:38.798Z,70.82
2022-11-26T21:49:11.074Z,70.63
2022-11-26T21:51:43.006Z,70.79
2022-11-26T21:54:14.718Z,71.22
2022-11-26T21:56:46.308Z,71.26
2022-11-26T21:59:18.081Z,71.57
2022-11-26T22:01:49.870Z,71.36
2022-11-26T22:04:21.752Z,71.46
2022-11-26T22:06:53.506Z,71.48
2022-11-26T22:09:25.163Z,71.36
2022-11-26T22:11:56.730Z,71.48
2022-11-26T22:14:31.420Z,72.21
2022-11-26T22:17:03.540Z,71.88
2022-11-26T22:19:35.400Z,71.85
2022-11-26T22:22:06.970Z,72.04
2022-11-26T22:24:38.644Z,72.48
2022-11-26T22:27:10.616Z,72.54
2022-11-26T22:29:42.568Z,72.48
2022-11-26T22:32:14.307Z,72.60
2022-11-26T22:34:45.957Z,72.83
2022-11-26T22:37:17.562Z,72.54
2022-11-26T22:39:53.695Z,72.70
2022-11-26T22:42:25.789Z,73.17
2022-11-26T22:44:57.454Z,72.94
2022-11-26T22:47:29.035Z,73.15
2022-11-26T22:50:03.163Z,73.53
2022-11-26T22:52:34.889Z,73.33
2022-11-26T22:55:06.807Z,73.37
2022-11-26T22:57:38.406Z,73.17
2022-11-26T23:00:14.218Z,73.74
2022-11-26T23:02:46.070Z,73.86
2022-11-26T23:05:17.869Z,73.98
2022-11-26T23:07:49.497Z,73.87
2022-11-26T23:10:21.320Z,74.54
2022-11-26T23:12:52.948Z,74.59
2022-11-26T23:15:24.576Z,74.94
2022-11-26T23:17:56.233Z,75.35
2022-11-26T23:20:27.989Z,75.52
2022-11-26T23:23:03.382Z,75.53
2022-11-26T23:25:39.174Z,75.87
2022-11-26T23:28:10.787Z,75.93
2022-11-26T23:30:42.396Z,75.93
2022-11-26T23:33:14.008Z,75.98
2022-11-26T23:35:45.692Z,75.46
2022-11-26T23:38:17.262Z,76.16
2022-11-26T23:40:56.720Z,75.91
2022-11-26T23:43:29.576Z,75.75
2022-11-26T23:46:08.380Z,75.88
2022-11-26T23:48:40.597Z,75.40
2022-11-26T23:51:18.565Z,76.13
2022-11-26T23:53:50.817Z,76.30
2022-11-26T23:56:28.498Z,76.20
2022-11-26T23:59:02.810Z,76.37
